Ne plus se rappeler de moi
Bonjour et Bienvenue
Pas de session ouverte
Mardi 21/04/2015
d:\inetpub\wwwroot\acrroussillon\reservation\ACR\IMAGES\IMG1.JPGd:\inetpub\wwwroot\acrroussillon\reservation\ACR\IMAGES\IMG2.JPGd:\inetpub\wwwroot\acrroussillon\reservation\ACR/IMAGES/IMG3.jpg
00:00:00
Horaires du 21/04/2015 (Données à titre indicatif seulement).
Lever du soleil : 06h58 - Coucher du soleil : 20h37 (Heure Locale)
Jour aéronautique : 06h28 - Nuit aéronautique : 21h07 (Heure Locale)
Planning des réservations des aéronefs
Planning des réservations des aéronefs
2015/04/21 13:00
LFMP 211300Z AUTO 08009KT 060V120 9999 NSC 21/07 Q1024
Planning des réservations des aéronefs
2015/04/21 12:25
TAF LFMP 211100Z 2112/2212 07008KT CAVOK
BECMG 2122/2124 BKN010
BECMG 2210/2212 14020G30KT
Informations sur les aéronefs
Informations sur les aéronefs
Modifications des Types de vols
ATTENTION PLUS DE PAIEMENT EN LIGNE DEPUIS LA MAISON
AEROCLUB DU ROUSSILLON. AVENUE MAURICE BELLONTE. 66000 PERPIGNAN. Tel : 04.68.73.48.18 Fax : 09.55.16.18.97 Courriel : aeroclub-roussillon@hotmail.fr
 METAR / TAF
LIENS UTILES
envoyer un e-mail
d:\inetpub\wwwroot\acrroussillon\reservation\ACR/IMAGES/Logo.jpg
Identifiez vous pour interaction
d:\inetpub\wwwroot\acrroussillon\reservation\ACR/IMAGES/Logo.jpg
Aéro-Club du Roussillon